createdAt,value
2017-11-27T08:20:47.341Z,4.90
2017-11-27T08:23:16.157Z,4.80
2017-11-27T08:25:44.998Z,4.90
2017-11-27T08:28:13.909Z,4.90
2017-11-27T08:30:43.512Z,5.00
2017-11-27T08:33:13.114Z,5.00
2017-11-27T08:35:41.931Z,4.90
2017-11-27T08:38:10.785Z,5.10
2017-11-27T08:40:39.627Z,5.10
2017-11-27T08:43:08.448Z,5.30
2017-11-27T08:45:37.287Z,5.30
2017-11-27T08:48:06.110Z,5.30
2017-11-27T08:50:34.961Z,5.30
2017-11-27T08:53:03.805Z,5.30
2017-11-27T08:55:33.415Z,5.50
2017-11-27T08:58:02.270Z,5.40
2017-11-27T09:00:31.113Z,5.30
2017-11-27T09:02:59.944Z,5.20
2017-11-27T09:05:29.541Z,5.30
2017-11-27T09:07:58.376Z,5.20
2017-11-27T09:10:27.238Z,5.30
2017-11-27T09:12:56.850Z,5.30
2017-11-27T09:15:25.665Z,5.20
2017-11-27T09:17:54.507Z,5.30
2017-11-27T09:20:23.337Z,5.30
2017-11-27T09:22:52.928Z,5.30
2017-11-27T09:25:22.554Z,5.30
2017-11-27T09:27:52.125Z,5.20
2017-11-27T09:30:20.956Z,5.20
2017-11-27T09:32:49.818Z,5.20
2017-11-27T09:35:18.640Z,5.30
2017-11-27T09:37:47.501Z,5.30
2017-11-27T09:40:16.466Z,5.30
2017-11-27T09:42:45.291Z,5.40
2017-11-27T09:45:14.915Z,5.40
2017-11-27T09:47:44.499Z,5.30
2017-11-27T09:50:14.136Z,5.30
2017-11-27T09:52:42.965Z,5.30
2017-11-27T09:55:12.573Z,5.30
2017-11-27T09:57:42.188Z,5.20
2017-11-27T10:00:16.641Z,5.30
2017-11-27T10:02:45.474Z,5.20
2017-11-27T10:05:14.303Z,5.40
2017-11-27T10:07:43.137Z,5.40
2017-11-27T10:10:11.966Z,5.40
2017-11-27T10:12:40.787Z,5.40
2017-11-27T10:15:09.603Z,5.40
2017-11-27T10:17:38.460Z,5.40
2017-11-27T10:20:07.295Z,5.40
2017-11-27T10:22:36.157Z,5.40
2017-11-27T10:25:05.118Z,5.40
2017-11-27T10:27:33.992Z,5.40
2017-11-27T10:30:02.812Z,5.50
2017-11-27T10:32:31.653Z,5.40
2017-11-27T10:35:01.277Z,5.40
2017-11-27T10:37:30.097Z,5.40
2017-11-27T10:39:58.960Z,5.30
2017-11-27T10:42:28.572Z,5.40
2017-11-27T10:44:58.156Z,5.40
2017-11-27T10:47:27.765Z,5.40
2017-11-27T10:49:57.384Z,5.50
2017-11-27T10:52:26.975Z,5.50
2017-11-27T10:54:57.247Z,5.50
2017-11-27T10:57:26.833Z,5.50
2017-11-27T10:59:55.833Z,5.40
2017-11-27T11:02:24.679Z,5.50
2017-11-27T11:04:53.503Z,5.50
2017-11-27T11:07:22.341Z,5.50
2017-11-27T11:09:51.178Z,5.40
2017-11-27T11:12:20.030Z,5.40
2017-11-27T11:14:48.867Z,5.40
2017-11-27T11:17:18.588Z,5.40
2017-11-27T11:19:47.434Z,5.50
2017-11-27T11:22:16.600Z,5.70
2017-11-27T11:24:45.437Z,5.70
2017-11-27T11:27:14.245Z,5.70
2017-11-27T11:29:43.069Z,5.60
2017-11-27T11:32:11.917Z,5.50
2017-11-27T11:34:40.753Z,5.50
2017-11-27T11:37:09.564Z,5.70
2017-11-27T11:39:39.344Z,5.80
2017-11-27T11:42:08.393Z,5.80
2017-11-27T11:44:39.082Z,5.80
2017-11-27T11:47:08.652Z,5.70
2017-11-27T11:49:37.483Z,5.60
2017-11-27T11:52:06.311Z,5.70
2017-11-27T11:54:35.174Z,5.80
2017-11-27T11:57:04.007Z,5.90
2017-11-27T11:59:33.636Z,5.80
2017-11-27T12:02:02.448Z,5.80
2017-11-27T12:04:31.289Z,5.80
2017-11-27T12:07:00.890Z,5.90
2017-11-27T12:09:30.496Z,5.90
2017-11-27T12:11:59.309Z,5.90
2017-11-27T12:14:28.921Z,5.90
2017-11-27T12:16:57.753Z,5.90
2017-11-27T12:19:26.574Z,5.90
2017-11-27T12:21:56.227Z,5.90
2017-11-27T12:24:25.045Z,5.80
2017-11-27T12:26:53.886Z,5.90
2017-11-27T12:29:22.721Z,5.90
2017-11-27T12:31:51.559Z,5.80
2017-11-27T12:34:20.393Z,5.90
2017-11-27T12:36:49.233Z,5.90
2017-11-27T12:39:19.020Z,6.00
2017-11-27T12:41:47.848Z,6.00
2017-11-27T12:44:16.699Z,6.00
2017-11-27T12:46:46.331Z,6.10
2017-11-27T12:49:15.172Z,6.10
2017-11-27T12:51:44.002Z,6.00
2017-11-27T12:54:13.629Z,6.10
2017-11-27T12:56:42.466Z,6.10
2017-11-27T12:59:12.089Z,6.20
2017-11-27T13:01:41.700Z,6.20
2017-11-27T13:04:11.309Z,6.20
2017-11-27T13:06:40.145Z,6.10
2017-11-27T13:09:09.892Z,6.20
2017-11-27T13:11:39.500Z,6.30
2017-11-27T13:14:09.095Z,6.20
2017-11-27T13:16:37.936Z,6.20
2017-11-27T13:19:06.789Z,6.20
2017-11-27T13:21:36.379Z,6.30
2017-11-27T13:24:06.636Z,6.40
2017-11-27T13:26:35.439Z,6.30
2017-11-27T13:29:04.268Z,6.40
2017-11-27T13:31:33.092Z,6.40
2017-11-27T13:34:01.948Z,6.40
2017-11-27T13:36:30.752Z,6.40
2017-11-27T13:39:00.353Z,6.40
2017-11-27T13:41:29.192Z,6.30
2017-11-27T13:43:58.108Z,6.40
2017-11-27T13:46:26.926Z,6.50
2017-11-27T13:48:56.535Z,6.50
2017-11-27T13:51:26.443Z,6.40
2017-11-27T13:53:56.038Z,6.40
2017-11-27T13:56:24.913Z,6.30
2017-11-27T13:58:53.757Z,6.40
2017-11-27T14:01:22.612Z,6.50
2017-11-27T14:03:51.436Z,6.50
2017-11-27T14:06:20.278Z,6.50
2017-11-27T14:08:50.234Z,6.50
2017-11-27T14:11:19.087Z,6.40
2017-11-27T14:13:47.910Z,6.40
2017-11-27T14:16:17.006Z,6.40
2017-11-27T14:18:46.615Z,6.40
2017-11-27T14:21:15.463Z,6.40
2017-11-27T14:23:44.289Z,6.40
2017-11-27T14:26:13.145Z,6.40
2017-11-27T14:28:41.984Z,6.40
2017-11-27T14:31:11.264Z,6.40
2017-11-27T14:33:40.307Z,6.50
2017-11-27T14:36:09.111Z,6.50
2017-11-27T14:38:38.522Z,6.60
2017-11-27T14:41:08.753Z,6.60
2017-11-27T14:53:22.615Z,6.60
2017-11-27T14:55:51.445Z,6.60
2017-11-27T14:58:20.289Z,6.60
2017-11-27T15:00:49.130Z,6.70
2017-11-27T15:03:18.242Z,6.70
2017-11-27T15:05:47.095Z,6.70
2017-11-27T15:08:15.916Z,6.80
2017-11-27T15:10:44.732Z,6.80
2017-11-27T15:13:13.592Z,6.90
2017-11-27T15:15:42.489Z,6.90
2017-11-27T15:18:11.322Z,6.80
2017-11-27T15:20:40.160Z,6.80
2017-11-27T15:23:09.015Z,6.90
2017-11-27T15:25:38.619Z,6.90
2017-11-27T15:28:08.236Z,6.90
2017-11-27T15:30:37.078Z,6.80
2017-11-27T15:33:05.920Z,6.90
2017-11-27T15:35:34.752Z,6.90
2017-11-27T15:38:03.732Z,6.90
2017-11-27T15:40:32.560Z,6.90
2017-11-27T15:43:02.209Z,7.00
2017-11-27T15:45:31.053Z,7.00
2017-11-27T15:48:00.637Z,7.00
2017-11-27T15:50:29.531Z,7.00
2017-11-27T15:52:58.373Z,7.10
2017-11-27T15:55:27.976Z,7.10
2017-11-27T15:57:56.812Z,7.10
2017-11-27T16:00:25.649Z,7.10
2017-11-27T16:02:54.508Z,7.10
2017-11-27T16:05:23.387Z,7.20
2017-11-27T16:07:52.216Z,7.20
2017-11-27T16:10:21.051Z,7.10
2017-11-27T16:12:50.667Z,7.10
2017-11-27T16:15:19.503Z,7.10
2017-11-27T16:17:48.444Z,7.20
2017-11-27T16:20:17.405Z,7.20
2017-11-27T16:22:46.382Z,7.20
2017-11-27T16:25:15.227Z,7.20
2017-11-27T16:27:44.092Z,7.20
2017-11-27T16:30:12.934Z,7.30
2017-11-27T16:32:41.796Z,7.20
2017-11-27T16:35:11.630Z,7.30
2017-11-27T16:37:41.200Z,7.30
2017-11-27T16:40:10.020Z,7.30
2017-11-27T16:42:39.617Z,7.30
2017-11-27T16:45:08.468Z,7.30
2017-11-27T16:47:37.306Z,7.30
2017-11-27T16:50:06.905Z,7.30
2017-11-27T16:52:36.508Z,7.40
2017-11-27T16:55:06.137Z,7.40
2017-11-27T16:57:35.834Z,7.30
2017-11-27T17:00:04.713Z,7.40
2017-11-27T17:02:33.534Z,7.30
2017-11-27T17:05:02.368Z,7.40
2017-11-27T17:07:31.255Z,7.50
2017-11-27T17:10:00.094Z,7.50
2017-11-27T17:12:29.933Z,7.50
2017-11-27T17:14:59.561Z,7.30
2017-11-27T17:17:29.190Z,7.30
2017-11-27T17:19:58.036Z,7.20
2017-11-27T17:22:27.672Z,7.40
2017-11-27T17:24:56.523Z,7.30
2017-11-27T17:27:25.374Z,7.30
2017-11-27T17:29:54.226Z,7.30
2017-11-27T17:32:23.815Z,7.20
2017-11-27T17:34:53.433Z,7.10
2017-11-27T17:37:23.025Z,7.10
2017-11-27T17:39:52.977Z,7.00
2017-11-27T17:42:22.584Z,7.00
2017-11-27T17:44:51.451Z,7.00
2017-11-27T17:47:20.271Z,7.10
2017-11-27T17:49:49.518Z,7.00
2017-11-27T17:52:18.353Z,7.00
2017-11-27T17:54:47.618Z,7.00
2017-11-27T17:57:17.376Z,7.10
2017-11-27T17:59:46.593Z,7.10
2017-11-27T18:02:17.627Z,7.00
2017-11-27T18:04:47.217Z,7.00
2017-11-27T18:07:16.812Z,7.00
2017-11-27T18:09:46.434Z,7.00
2017-11-27T18:12:15.318Z,7.00
2017-11-27T18:14:44.928Z,7.10
2017-11-27T18:17:13.842Z,7.10
2017-11-27T18:19:42.768Z,7.10
2017-11-27T18:22:12.129Z,7.20
2017-11-27T18:24:41.001Z,7.30
2017-11-27T18:27:10.625Z,7.20
2017-11-27T18:29:39.567Z,7.20
2017-11-27T18:32:08.404Z,7.30
2017-11-27T18:34:37.314Z,7.30
2017-11-27T18:37:06.125Z,7.30
2017-11-27T18:39:35.006Z,7.30
2017-11-27T18:42:03.853Z,7.30
2017-11-27T18:44:33.477Z,7.30
2017-11-27T18:47:02.473Z,7.20
2017-11-27T18:49:31.352Z,7.30
2017-11-27T18:52:01.038Z,7.30
2017-11-27T18:54:30.677Z,7.30
2017-11-27T18:56:59.542Z,7.30
2017-11-27T18:59:29.158Z,7.30
2017-11-27T19:01:58.947Z,7.30
2017-11-27T19:04:28.460Z,7.30
2017-11-27T19:06:57.344Z,7.40
2017-11-27T19:09:26.984Z,7.50
2017-11-27T19:11:56.621Z,7.50
2017-11-27T19:14:25.520Z,7.40
2017-11-27T19:16:54.395Z,7.40
2017-11-27T19:19:23.332Z,7.40
2017-11-27T19:21:52.183Z,7.40
2017-11-27T19:24:21.053Z,7.50
2017-11-27T19:26:50.682Z,7.40
2017-11-27T19:29:19.552Z,7.40
2017-11-27T19:31:49.182Z,7.40
2017-11-27T19:34:18.068Z,7.30
2017-11-27T19:36:46.927Z,7.40
2017-11-27T19:39:16.548Z,7.40
2017-11-27T19:41:45.408Z,7.40
2017-11-27T19:44:15.036Z,7.30
2017-11-27T19:46:44.711Z,7.40
2017-11-27T19:49:13.618Z,7.30
2017-11-27T19:51:45.360Z,7.40
2017-11-27T19:54:16.092Z,7.40
2017-11-27T19:56:44.954Z,7.30
2017-11-27T19:59:13.777Z,7.40
2017-11-27T20:01:42.614Z,7.40
2017-11-27T20:04:12.231Z,7.40
2017-11-27T20:06:41.828Z,7.50
2017-11-27T20:09:12.250Z,7.40
2017-11-27T20:11:41.168Z,7.50
2017-11-27T20:14:10.793Z,7.60
2017-11-27T20:16:39.638Z,7.60
2017-11-27T20:19:09.390Z,7.60
2017-11-27T20:21:38.252Z,7.70
2017-11-27T20:24:07.306Z,7.70
2017-11-27T20:26:37.012Z,7.80
2017-11-27T20:29:06.759Z,7.70
2017-11-27T20:31:36.757Z,7.80
2017-11-27T20:34:05.603Z,7.70
2017-11-27T20:36:34.496Z,7.80
2017-11-27T20:39:03.593Z,7.80
2017-11-27T20:41:32.563Z,7.80
2017-11-27T20:44:02.158Z,7.60
2017-11-27T20:46:37.667Z,7.50
2017-11-27T20:49:06.544Z,7.40
2017-11-27T20:51:35.468Z,7.30
2017-11-27T20:54:05.933Z,7.30
2017-11-27T20:56:35.479Z,7.30
2017-11-27T20:59:04.409Z,7.20
2017-11-27T21:01:33.217Z,7.20
2017-11-27T21:04:02.163Z,7.20
2017-11-27T21:06:31.004Z,7.20
2017-11-27T21:08:59.847Z,7.10
2017-11-27T21:11:28.728Z,7.10
2017-11-27T21:13:57.539Z,7.20
2017-11-27T21:16:27.217Z,7.20
2017-11-27T21:18:56.107Z,7.10
2017-11-27T21:21:25.105Z,7.10
2017-11-27T21:23:53.943Z,7.10
2017-11-27T21:26:23.562Z,7.00
2017-11-27T21:28:52.499Z,7.00
2017-11-27T21:31:21.408Z,7.10
2017-11-27T21:33:50.250Z,7.20
2017-11-27T21:36:19.090Z,7.30
2017-11-27T21:38:48.808Z,7.40
2017-11-27T21:41:17.723Z,7.30
2017-11-27T21:43:46.713Z,7.50
2017-11-27T21:46:15.566Z,7.50
2017-11-27T21:48:44.402Z,7.60
2017-11-27T21:51:13.254Z,7.60
2017-11-27T21:53:43.505Z,7.60
2017-11-27T21:56:12.389Z,7.50
2017-11-27T21:58:41.256Z,7.60
2017-11-27T22:01:10.911Z,7.70
2017-11-27T22:03:40.403Z,7.60
2017-11-27T22:06:10.127Z,7.50
2017-11-27T22:08:38.959Z,7.10
2017-11-27T22:11:07.807Z,6.90
2017-11-27T22:13:36.656Z,6.80
2017-11-27T22:16:06.235Z,6.70
2017-11-27T22:18:35.089Z,6.70
2017-11-27T22:21:03.949Z,6.70
2017-11-27T22:23:32.819Z,6.70
2017-11-27T22:26:02.427Z,6.70
2017-11-27T22:28:32.038Z,6.60
2017-11-27T22:31:01.648Z,6.50
2017-11-27T22:33:31.320Z,6.50
2017-11-27T22:36:00.148Z,6.50
2017-11-27T22:38:29.769Z,6.50
2017-11-27T22:40:58.639Z,6.40
2017-11-27T22:43:28.246Z,6.60
2017-11-27T22:45:57.845Z,6.50
2017-11-27T22:48:27.470Z,6.50
2017-11-27T22:50:57.131Z,6.50
2017-11-27T22:53:25.946Z,6.50
2017-11-27T22:55:55.590Z,6.50
2017-11-27T22:58:24.432Z,6.50
2017-11-27T23:00:53.285Z,6.60
2017-11-27T23:03:22.922Z,6.70
2017-11-27T23:05:52.516Z,6.60
2017-11-27T23:08:22.750Z,6.60
2017-11-27T23:10:52.342Z,6.50
2017-11-27T23:13:21.960Z,6.50
2017-11-27T23:15:51.600Z,6.50
2017-11-27T23:18:20.437Z,6.50
2017-11-27T23:20:49.479Z,6.60
2017-11-27T23:23:18.352Z,6.50
2017-11-27T23:25:48.995Z,6.50
2017-11-27T23:28:17.834Z,6.40
2017-11-27T23:30:46.679Z,6.30
2017-11-27T23:33:15.513Z,6.40
2017-11-27T23:35:44.336Z,6.40
2017-11-27T23:38:13.197Z,6.50
2017-11-27T23:40:42.787Z,6.40
2017-11-27T23:43:11.720Z,6.40
2017-11-27T23:45:41.312Z,6.30
2017-11-27T23:48:10.944Z,6.30
2017-11-27T23:50:39.799Z,6.20
2017-11-27T23:53:08.616Z,6.20
2017-11-27T23:55:37.484Z,6.30
2017-11-27T23:58:07.092Z,6.50
